createdAt,value
2022-09-23T00:00:01.582Z,4.009
2022-09-23T00:07:01.675Z,4.014
2022-09-23T00:14:01.860Z,4.014
2022-09-23T00:21:02.187Z,4.009
2022-09-23T00:28:01.875Z,4.009
2022-09-23T00:35:01.970Z,4.004
2022-09-23T00:42:01.496Z,4.004
2022-09-23T00:49:01.591Z,4.004
2022-09-23T00:56:01.855Z,4.004
2022-09-23T01:00:02.414Z,4.009
2022-09-23T01:07:01.798Z,4.009
2022-09-23T01:14:02.117Z,4.009
2022-09-23T01:21:02.350Z,4.009
2022-09-23T01:28:01.762Z,4.009
2022-09-23T01:35:01.690Z,4.009
2022-09-23T01:42:01.615Z,4.009
2022-09-23T01:49:02.017Z,4.004
2022-09-23T01:56:01.773Z,4.004
2022-09-23T02:00:02.358Z,4.004
2022-09-23T02:07:01.747Z,4.009
2022-09-23T02:14:01.902Z,4.009
2022-09-23T02:21:01.599Z,4.004
2022-09-23T02:28:01.354Z,4.004
2022-09-23T02:35:02.447Z,4.004
2022-09-23T02:42:01.370Z,4.004
2022-09-23T02:49:02.089Z,4.004
2022-09-23T02:56:02.092Z,4.004
2022-09-23T03:00:01.731Z,4.004
2022-09-23T03:07:01.689Z,4.004
2022-09-23T03:14:01.996Z,4.004
2022-09-23T03:21:02.320Z,4.004
2022-09-23T03:28:02.030Z,4.004
2022-09-23T03:35:02.568Z,4.004
2022-09-23T03:42:01.653Z,4.004
2022-09-23T03:49:02.113Z,4.004
2022-09-23T03:56:01.584Z,4.004
2022-09-23T04:00:02.219Z,4.004
2022-09-23T04:07:01.535Z,4.004
2022-09-23T04:14:02.257Z,4.004
2022-09-23T04:21:01.928Z,4.004
2022-09-23T04:28:01.900Z,4.004
2022-09-23T04:35:01.745Z,4.004
2022-09-23T04:42:02.186Z,4.004
2022-09-23T04:49:01.798Z,4.004
2022-09-23T04:56:01.566Z,4.004
2022-09-23T05:00:02.138Z,4.004
2022-09-23T05:07:03.517Z,4.004
2022-09-23T05:14:01.779Z,4.004
2022-09-23T05:21:02.055Z,4.004
2022-09-23T05:28:01.687Z,4.004
2022-09-23T05:35:02.427Z,4.004
2022-09-23T05:42:02.311Z,4.004
2022-09-23T05:49:03.328Z,4.004
2022-09-23T05:56:02.156Z,4.004
2022-09-23T06:00:01.771Z,4.004
2022-09-23T06:07:03.726Z,4.004
2022-09-23T06:14:01.898Z,4.004
2022-09-23T06:21:02.228Z,4.004
2022-09-23T06:28:02.354Z,4.004
2022-09-23T06:35:01.547Z,4.004
2022-09-23T06:42:02.141Z,4.004
2022-09-23T06:49:01.653Z,4.004
2022-09-23T06:56:01.965Z,4.004
2022-09-23T07:00:01.691Z,4.004
2022-09-23T07:07:02.250Z,4.004
2022-09-23T07:14:01.953Z,4.004
2022-09-23T07:21:01.935Z,4.004
2022-09-23T07:28:01.398Z,4.004
2022-09-23T07:35:02.252Z,4.004
2022-09-23T07:42:02.277Z,4.004
2022-09-23T07:49:02.236Z,4.004
2022-09-23T07:56:01.691Z,4.004
2022-09-23T08:00:02.305Z,4.004
2022-09-23T08:07:02.091Z,4.004
2022-09-23T08:14:02.350Z,4.004
2022-09-23T08:21:01.926Z,4.004
2022-09-23T08:28:01.474Z,4.004
2022-09-23T08:35:02.107Z,4.004
2022-09-23T08:42:02.076Z,4.004
2022-09-23T08:49:01.890Z,4.004
2022-09-23T08:56:01.984Z,4.004
2022-09-23T09:00:01.623Z,4.004
2022-09-23T09:07:18.298Z,4.004
2022-09-23T09:14:01.597Z,4.004
2022-09-23T09:21:01.751Z,4.004
2022-09-23T09:28:01.458Z,4.004
2022-09-23T09:35:01.713Z,4.004
2022-09-23T09:42:01.814Z,4.004
2022-09-23T09:49:01.986Z,4.004
2022-09-23T09:56:04.892Z,4.004
2022-09-23T10:00:02.234Z,4.004
2022-09-23T10:07:01.699Z,4.004
2022-09-23T10:14:01.306Z,4.004
2022-09-23T10:21:01.983Z,4.004
2022-09-23T10:28:05.979Z,4.004
2022-09-23T10:35:02.015Z,4.004
2022-09-23T10:42:01.826Z,4.004
2022-09-23T10:49:02.129Z,4.004
2022-09-23T10:56:02.089Z,4.004
2022-09-23T11:00:01.709Z,4.004
2022-09-23T11:07:01.309Z,4.004
2022-09-23T11:14:01.848Z,4.004
2022-09-23T11:21:01.814Z,4.004
2022-09-23T11:28:01.521Z,4.004
2022-09-23T11:35:01.916Z,4.004
2022-09-23T11:42:01.539Z,4.004
2022-09-23T11:49:01.641Z,4.004
2022-09-23T11:56:02.157Z,4.004
2022-09-23T12:00:03.355Z,4.004
2022-09-23T12:07:01.765Z,4.004
2022-09-23T12:14:01.670Z,4.004
2022-09-23T12:21:02.266Z,4.004
2022-09-23T12:28:01.679Z,4.004
2022-09-23T12:35:02.144Z,4.004
2022-09-23T12:42:01.400Z,4.004
2022-09-23T12:49:01.678Z,4.004
2022-09-23T12:56:01.380Z,4.004
2022-09-23T13:00:01.922Z,4.009
2022-09-23T13:07:02.024Z,4.009
2022-09-23T13:14:01.470Z,4.004
2022-09-23T13:21:01.467Z,4.004
2022-09-23T13:28:02.154Z,4.004
2022-09-23T13:35:01.735Z,4.004
2022-09-23T13:42:01.747Z,4.004
2022-09-23T13:49:02.045Z,4.004
2022-09-23T13:56:02.198Z,4.004
2022-09-23T14:00:01.750Z,4.004
2022-09-23T14:07:01.674Z,4.004
2022-09-23T14:14:01.603Z,4.004
2022-09-23T14:21:02.171Z,4.004
2022-09-23T14:28:01.708Z,4.004
2022-09-23T14:35:02.248Z,4.004
2022-09-23T14:42:01.704Z,4.004
2022-09-23T14:49:01.864Z,4.004
2022-09-23T14:56:01.794Z,4.004
2022-09-23T15:00:02.399Z,4.004
2022-09-23T15:07:02.083Z,4.004
2022-09-23T15:14:14.174Z,4.004
2022-09-23T15:21:01.614Z,4.004
2022-09-23T15:28:01.465Z,4.004
2022-09-23T15:35:02.498Z,4.004
2022-09-23T15:42:02.318Z,4.004
2022-09-23T15:49:01.908Z,4.004
2022-09-23T15:56:02.342Z,4.004
2022-09-23T16:00:01.895Z,4.004
2022-09-23T16:07:01.921Z,4.004
2022-09-23T16:14:01.794Z,4.004
2022-09-23T16:21:01.945Z,4.004
2022-09-23T16:28:01.676Z,4.289
2022-09-23T16:35:02.403Z,4.289
2022-09-23T16:42:01.343Z,4.289
2022-09-23T16:49:01.840Z,4.294
2022-09-23T16:56:01.488Z,4.294
2022-09-23T17:00:02.130Z,4.294
2022-09-23T17:07:02.160Z,4.303
2022-09-23T17:14:01.395Z,4.303
2022-09-23T17:21:01.478Z,4.308
2022-09-23T17:28:01.336Z,4.308
2022-09-23T17:35:02.146Z,4.312
2022-09-23T17:42:02.089Z,4.317
2022-09-23T17:49:01.481Z,4.317
2022-09-23T17:56:02.227Z,4.266
2022-09-23T18:00:01.728Z,4.262
2022-09-23T18:07:02.175Z,4.262
2022-09-23T18:14:02.219Z,4.257
2022-09-23T18:21:02.200Z,4.257
2022-09-23T18:28:01.726Z,4.257
2022-09-23T18:35:02.133Z,4.257
2022-09-23T18:42:02.312Z,4.257
2022-09-23T18:49:01.466Z,4.253
2022-09-23T18:56:02.277Z,4.253
2022-09-23T19:00:01.864Z,4.253
2022-09-23T19:07:01.492Z,4.253
2022-09-23T19:14:02.230Z,4.253
2022-09-23T19:21:06.233Z,4.253
2022-09-23T19:28:02.031Z,4.253
2022-09-23T19:35:01.571Z,4.253
2022-09-23T19:42:02.257Z,4.253
2022-09-23T19:49:02.188Z,4.253
2022-09-23T19:56:02.292Z,4.253
2022-09-23T20:00:01.941Z,4.253
2022-09-23T20:07:01.816Z,4.253
2022-09-23T20:14:02.134Z,4.253
2022-09-23T20:21:01.992Z,4.248
2022-09-23T20:28:02.060Z,4.248
2022-09-23T20:35:02.464Z,4.248
2022-09-23T20:42:01.833Z,4.248
2022-09-23T20:49:02.174Z,4.248
2022-09-23T20:56:02.322Z,4.248
2022-09-23T21:00:01.964Z,4.248
2022-09-23T21:07:01.384Z,4.248
2022-09-23T21:14:01.988Z,4.248
2022-09-23T21:21:01.984Z,4.248
2022-09-23T21:28:01.658Z,4.248
2022-09-23T21:35:02.241Z,4.248
2022-09-23T21:42:01.998Z,4.248
2022-09-23T21:49:01.377Z,4.248
2022-09-23T21:56:01.370Z,4.248
2022-09-23T22:00:02.041Z,4.248
2022-09-23T22:07:01.510Z,4.248
2022-09-23T22:14:01.698Z,4.248
2022-09-23T22:21:02.240Z,4.248
2022-09-23T22:28:01.873Z,4.248
2022-09-23T22:35:02.286Z,4.248
2022-09-23T22:42:01.785Z,4.248
2022-09-23T22:49:02.018Z,4.248
2022-09-23T22:56:02.014Z,4.248
2022-09-23T23:00:01.579Z,4.248
2022-09-23T23:07:02.089Z,4.248
2022-09-23T23:14:01.705Z,4.248
2022-09-23T23:21:02.103Z,4.248
2022-09-23T23:28:01.470Z,4.248
2022-09-23T23:35:02.313Z,4.248
2022-09-23T23:42:01.979Z,4.248
2022-09-23T23:49:02.288Z,4.239
2022-09-23T23:56:02.045Z,4.239
